createdAt,value
2022-10-11T00:00:05.843Z,3.40
2022-10-11T00:02:32.676Z,3.13
2022-10-11T00:04:59.483Z,3.20
2022-10-11T00:07:26.787Z,2.63
2022-10-11T00:09:53.599Z,2.80
2022-10-11T00:12:20.352Z,2.70
2022-10-11T00:14:47.044Z,3.13
2022-10-11T00:17:14.522Z,2.57
2022-10-11T00:19:41.283Z,3.00
2022-10-11T00:22:08.278Z,3.00
2022-10-11T00:24:35.046Z,3.30
2022-10-11T00:27:01.831Z,3.67
2022-10-11T00:29:28.616Z,2.90
2022-10-11T00:31:55.378Z,3.43
2022-10-11T00:34:22.131Z,3.53
2022-10-11T00:36:48.886Z,3.60
2022-10-11T00:39:15.655Z,3.60
2022-10-11T00:41:42.688Z,3.47
2022-10-11T00:44:17.796Z,3.27
2022-10-11T00:47:02.302Z,3.43
2022-10-11T00:49:41.092Z,3.10
2022-10-11T00:52:14.346Z,3.90
2022-10-11T00:54:43.502Z,3.57
2022-10-11T00:57:17.099Z,3.10
2022-10-11T00:59:47.937Z,3.33
2022-10-11T01:02:16.001Z,3.10
2022-10-11T01:04:43.071Z,3.47
2022-10-11T01:07:11.016Z,3.40
2022-10-11T01:09:37.856Z,3.23
2022-10-11T01:12:12.062Z,3.50
2022-10-11T01:14:50.334Z,3.20
2022-10-11T01:17:32.731Z,3.50
2022-10-11T01:20:14.697Z,3.50
2022-10-11T01:23:12.186Z,3.20
2022-10-11T01:25:57.455Z,3.20
2022-10-11T01:28:51.084Z,3.20
2022-10-11T01:31:38.969Z,3.00
2022-10-11T01:34:15.430Z,3.37
2022-10-11T01:36:58.353Z,3.63
2022-10-11T01:40:20.235Z,4.10
2022-10-11T01:42:47.906Z,3.83
2022-10-11T01:45:18.566Z,3.97
2022-10-11T01:47:48.728Z,4.50
2022-10-11T01:50:43.850Z,3.53
2022-10-11T01:53:44.075Z,3.63
2022-10-11T01:56:19.789Z,3.47
2022-10-11T01:59:24.008Z,3.17
2022-10-11T02:01:59.659Z,4.17
2022-10-11T02:04:49.193Z,3.60
2022-10-11T02:07:23.385Z,3.77
2022-10-11T02:10:19.253Z,4.20
2022-10-11T02:12:55.609Z,4.20
2022-10-11T02:15:25.242Z,4.60
2022-10-11T02:17:56.874Z,3.97
2022-10-11T02:20:26.200Z,4.33
2022-10-11T02:22:59.688Z,4.60
2022-10-11T02:25:30.700Z,4.20
2022-10-11T02:28:00.981Z,4.40
2022-10-11T02:30:30.562Z,4.20
2022-10-11T02:32:58.790Z,4.10
2022-10-11T02:35:29.234Z,4.23
2022-10-11T02:38:02.527Z,4.50
2022-10-11T02:40:42.637Z,4.40
2022-10-11T02:43:17.663Z,4.07
2022-10-11T02:45:49.987Z,4.43
2022-10-11T02:48:17.766Z,4.37
2022-10-11T02:50:44.803Z,4.47
2022-10-11T02:53:11.628Z,4.70
2022-10-11T02:55:38.378Z,4.80
2022-10-11T02:58:05.108Z,3.93
2022-10-11T03:00:32.045Z,4.47
2022-10-11T03:02:58.806Z,4.90
2022-10-11T03:05:25.648Z,4.40
2022-10-11T03:07:52.441Z,4.83
2022-10-11T03:10:19.381Z,5.30
2022-10-11T03:12:46.089Z,4.77
2022-10-11T03:15:12.848Z,5.10
2022-10-11T03:17:39.618Z,4.93
2022-10-11T03:20:07.088Z,4.90
2022-10-11T03:22:34.027Z,4.80
2022-10-11T03:25:04.117Z,5.20
2022-10-11T03:27:32.716Z,4.73
2022-10-11T03:29:59.758Z,4.63
2022-10-11T03:32:26.588Z,4.50
2022-10-11T03:34:53.378Z,4.40
2022-10-11T03:37:20.229Z,4.50
2022-10-11T03:39:46.953Z,4.60
2022-10-11T03:42:14.132Z,4.33
2022-10-11T03:44:42.114Z,4.10
2022-10-11T03:47:09.508Z,4.90
2022-10-11T03:49:41.205Z,5.17
2022-10-11T03:52:09.588Z,4.50
2022-10-11T03:54:36.404Z,4.90
2022-10-11T03:57:03.295Z,5.60
2022-10-11T03:59:30.180Z,5.37
2022-10-11T04:01:57.057Z,5.10
2022-10-11T04:04:23.930Z,4.83
2022-10-11T04:06:50.764Z,6.03
2022-10-11T04:09:17.751Z,5.20
2022-10-11T04:11:44.496Z,5.20
2022-10-11T04:14:11.295Z,5.07
2022-10-11T04:16:38.788Z,5.97
2022-10-11T04:19:05.778Z,5.63
2022-10-11T04:21:32.605Z,5.53
2022-10-11T04:23:59.637Z,4.83
2022-10-11T04:26:26.593Z,5.03
2022-10-11T04:28:53.445Z,5.40
2022-10-11T04:31:20.262Z,5.03
2022-10-11T04:33:47.005Z,4.33
2022-10-11T04:36:13.715Z,5.47
2022-10-11T04:38:40.441Z,6.07
2022-10-11T04:41:13.061Z,5.77
2022-10-11T04:43:40.187Z,5.70
2022-10-11T04:46:08.180Z,5.23
2022-10-11T04:48:35.365Z,5.50
2022-10-11T04:51:02.295Z,5.83
2022-10-11T04:53:29.156Z,5.07
2022-10-11T04:56:01.691Z,5.90
2022-10-11T04:58:29.982Z,5.57
2022-10-11T05:00:57.122Z,5.60
2022-10-11T05:03:24.429Z,5.90
2022-10-11T05:05:51.523Z,6.10
2022-10-11T05:08:18.444Z,6.10
2022-10-11T05:10:59.976Z,6.20
2022-10-11T05:13:28.598Z,5.80
2022-10-11T05:15:55.428Z,6.43
2022-10-11T05:18:22.644Z,6.70
2022-10-11T05:20:58.032Z,6.43
2022-10-11T05:23:24.840Z,6.50
2022-10-11T05:25:51.597Z,5.87
2022-10-11T05:28:18.490Z,5.87
2022-10-11T05:30:45.270Z,6.30
2022-10-11T05:33:12.055Z,6.00
2022-10-11T05:35:38.970Z,6.30
2022-10-11T05:38:05.793Z,5.67
2022-10-11T05:40:33.437Z,6.33
2022-10-11T05:43:00.236Z,6.30
2022-10-11T05:45:26.994Z,5.50
2022-10-11T05:47:53.809Z,6.03
2022-10-11T05:50:24.101Z,5.97
2022-10-11T05:52:51.314Z,6.00
2022-10-11T05:55:18.196Z,5.60
2022-10-11T05:57:45.018Z,5.83
2022-10-11T06:00:12.205Z,6.03
2022-10-11T06:02:39.162Z,6.50
2022-10-11T06:05:06.244Z,5.60
2022-10-11T06:07:35.829Z,5.57
2022-10-11T06:10:02.988Z,5.73
2022-10-11T06:12:31.068Z,6.40
2022-10-11T06:14:57.831Z,5.93
2022-10-11T06:17:24.885Z,5.87
2022-10-11T06:19:51.838Z,6.17
2022-10-11T06:22:18.832Z,6.60
2022-10-11T06:24:45.637Z,7.03
2022-10-11T06:27:13.007Z,8.27
2022-10-11T06:29:39.744Z,6.70
2022-10-11T06:32:06.753Z,7.27
2022-10-11T06:34:33.543Z,7.40
2022-10-11T06:37:00.386Z,6.90
2022-10-11T06:39:27.206Z,6.80
2022-10-11T06:41:53.937Z,6.73
2022-10-11T06:44:20.697Z,6.37
2022-10-11T06:46:47.512Z,6.03
2022-10-11T06:49:16.287Z,5.70
2022-10-11T06:51:46.373Z,5.90
2022-10-11T06:54:13.167Z,6.03
2022-10-11T06:56:40.844Z,6.70
2022-10-11T06:59:08.998Z,6.33
2022-10-11T07:01:35.835Z,6.87
2022-10-11T07:04:03.083Z,7.47
2022-10-11T07:06:31.252Z,7.00
2022-10-11T07:09:00.274Z,6.93
2022-10-11T07:11:28.083Z,7.53
2022-10-11T07:13:57.968Z,6.50
2022-10-11T07:16:26.171Z,8.03
2022-10-11T07:19:00.480Z,9.87
2022-10-11T07:21:29.916Z,9.43
2022-10-11T07:23:56.739Z,9.90
2022-10-11T07:26:23.628Z,10.03
2022-10-11T07:28:50.597Z,10.63
2022-10-11T07:31:23.505Z,11.10
2022-10-11T07:33:50.402Z,12.03
2022-10-11T07:36:17.244Z,12.70
2022-10-11T07:38:45.804Z,11.47
2022-10-11T07:41:13.125Z,12.30
2022-10-11T07:43:39.984Z,11.37
2022-10-11T07:46:08.017Z,12.60
2022-10-11T07:48:36.253Z,12.77
2022-10-11T07:51:07.025Z,11.90
2022-10-11T07:53:48.379Z,11.83
2022-10-11T07:56:17.807Z,13.50
2022-10-11T07:58:44.978Z,13.03
2022-10-11T08:01:12.363Z,14.03
2022-10-11T08:03:39.168Z,12.87
2022-10-11T08:06:09.715Z,13.33
2022-10-11T08:08:37.526Z,13.43
2022-10-11T08:11:05.152Z,12.30
2022-10-11T08:13:31.949Z,13.70
2022-10-11T08:15:58.960Z,12.53
2022-10-11T08:18:26.143Z,13.40
2022-10-11T08:20:53.018Z,13.40
2022-10-11T08:23:19.884Z,13.30
2022-10-11T08:25:48.124Z,15.20
2022-10-11T08:28:17.401Z,13.07
2022-10-11T08:30:49.179Z,14.90
2022-10-11T08:33:20.553Z,14.83
2022-10-11T08:35:47.755Z,15.27
2022-10-11T08:38:15.126Z,15.13
2022-10-11T08:40:55.789Z,16.63
2022-10-11T08:43:28.535Z,16.47
2022-10-11T08:45:57.920Z,17.27
2022-10-11T08:48:38.622Z,17.03
2022-10-11T08:51:14.958Z,15.17
2022-10-11T08:53:55.764Z,15.83
2022-10-11T08:56:23.904Z,16.43
2022-10-11T08:59:00.738Z,18.07
2022-10-11T09:01:28.679Z,18.70
2022-10-11T09:03:55.732Z,17.33
2022-10-11T09:06:40.481Z,17.83
2022-10-11T09:09:44.013Z,17.60
2022-10-11T09:12:32.806Z,16.40
2022-10-11T09:15:22.145Z,16.70
2022-10-11T09:18:16.535Z,18.63
2022-10-11T09:21:08.334Z,12.90
2022-10-11T09:23:44.348Z,14.43
2022-10-11T09:26:31.933Z,18.40
2022-10-11T09:29:22.410Z,16.50
2022-10-11T09:31:54.014Z,17.40
2022-10-11T09:34:25.255Z,16.27
2022-10-11T09:37:18.402Z,18.17
2022-10-11T09:40:11.957Z,17.47
2022-10-11T09:42:38.706Z,16.97
2022-10-11T09:45:20.581Z,19.63
2022-10-11T09:47:49.683Z,18.10
2022-10-11T09:50:20.885Z,17.87
2022-10-11T09:52:53.949Z,20.00
2022-10-11T09:55:54.280Z,18.60
2022-10-11T09:58:31.367Z,17.87
2022-10-11T10:01:08.061Z,19.87
2022-10-11T10:03:43.375Z,20.93
2022-10-11T10:06:26.230Z,20.17
2022-10-11T10:08:53.046Z,19.53
2022-10-11T10:11:20.060Z,17.17
2022-10-11T10:13:51.622Z,19.27
2022-10-11T10:16:24.990Z,21.90
2022-10-11T10:18:56.607Z,19.70
2022-10-11T10:21:38.462Z,19.10
2022-10-11T10:24:09.434Z,19.67
2022-10-11T10:26:36.272Z,18.93
2022-10-11T10:29:09.070Z,19.70
2022-10-11T10:32:20.754Z,20.77
2022-10-11T10:34:41.504Z,21.50
2022-10-11T10:37:29.448Z,20.20
2022-10-11T10:40:03.798Z,19.50
2022-10-11T10:42:30.629Z,19.97
2022-10-11T10:44:58.980Z,20.67
2022-10-11T10:47:56.873Z,21.10
2022-10-11T10:50:36.969Z,19.17
2022-10-11T10:53:18.745Z,17.73
2022-10-11T10:55:52.468Z,16.90
2022-10-11T10:58:27.146Z,20.87
2022-10-11T11:01:06.221Z,16.60
2022-10-11T11:03:46.328Z,19.50
2022-10-11T11:06:36.727Z,17.23
2022-10-11T11:09:23.754Z,17.53
2022-10-11T11:12:20.109Z,15.53
2022-10-11T11:14:46.821Z,14.73
2022-10-11T11:17:57.668Z,17.57
2022-10-11T11:20:51.922Z,15.83
2022-10-11T11:23:36.664Z,16.63
2022-10-11T11:26:27.145Z,15.20
2022-10-11T11:29:09.340Z,13.60
2022-10-11T11:32:03.989Z,14.00
2022-10-11T11:34:42.446Z,13.07
2022-10-11T11:37:28.175Z,12.43
2022-10-11T11:40:00.548Z,12.60
2022-10-11T11:42:34.298Z,13.27
2022-10-11T11:45:25.370Z,13.87
2022-10-11T11:48:09.949Z,12.70
2022-10-11T11:50:46.795Z,12.37
2022-10-11T11:53:34.877Z,12.60
2022-10-11T11:56:09.220Z,12.47
2022-10-11T11:59:02.996Z,12.40
2022-10-11T12:01:50.860Z,12.50
2022-10-11T12:04:29.721Z,12.43
2022-10-11T12:07:15.928Z,11.87
2022-10-11T12:09:46.498Z,11.67
2022-10-11T12:12:34.158Z,12.17
2022-10-11T12:15:10.059Z,11.30
2022-10-11T12:17:58.021Z,11.47
2022-10-11T12:20:26.443Z,10.50
2022-10-11T12:23:24.525Z,9.83
2022-10-11T12:26:28.729Z,10.23
2022-10-11T12:29:18.161Z,9.70
2022-10-11T12:31:51.862Z,9.30
2022-10-11T12:37:17.987Z,8.60
2022-10-11T12:39:57.173Z,9.20
2022-10-11T12:42:25.651Z,8.80
2022-10-11T12:45:11.076Z,9.23
2022-10-11T12:48:03.011Z,8.43
2022-10-11T12:51:03.127Z,8.37
2022-10-11T12:54:25.433Z,8.23
2022-10-11T12:57:36.758Z,8.03
2022-10-11T13:00:22.033Z,6.77
2022-10-11T13:02:49.471Z,7.00
2022-10-11T13:05:28.096Z,8.00
2022-10-11T13:07:59.020Z,7.23
2022-10-11T13:10:38.210Z,6.87
2022-10-11T13:13:29.977Z,6.43
2022-10-11T13:15:59.115Z,8.07
2022-10-11T13:18:26.634Z,8.37
2022-10-11T13:20:53.502Z,8.30
2022-10-11T13:23:29.674Z,7.20
2022-10-11T13:25:56.973Z,8.13
2022-10-11T13:28:23.933Z,8.87
2022-10-11T13:30:54.364Z,9.17
2022-10-11T13:33:32.264Z,9.53
2022-10-11T13:36:01.835Z,10.33
2022-10-11T13:38:32.041Z,8.33
2022-10-11T13:41:01.251Z,9.80
2022-10-11T13:43:29.830Z,9.67
2022-10-11T13:45:59.072Z,9.50
2022-10-11T13:48:31.480Z,10.40
2022-10-11T13:51:30.673Z,9.37
2022-10-11T13:54:13.521Z,9.77
2022-10-11T13:56:50.895Z,10.80
2022-10-11T13:59:23.172Z,10.57
2022-10-11T14:01:57.540Z,9.30
2022-10-11T14:04:29.356Z,8.93
2022-10-11T14:07:02.534Z,10.13
2022-10-11T14:09:33.808Z,10.23
2022-10-11T14:12:31.128Z,9.30
2022-10-11T14:14:59.802Z,9.43
2022-10-11T14:17:45.297Z,9.27
2022-10-11T14:20:21.047Z,10.20
2022-10-11T14:22:51.893Z,10.00
2022-10-11T14:25:19.833Z,10.00
2022-10-11T14:27:54.752Z,10.73
2022-10-11T14:30:26.418Z,10.27
2022-10-11T14:32:56.267Z,9.53
2022-10-11T14:35:29.096Z,10.47
2022-10-11T14:37:56.312Z,10.33
2022-10-11T14:40:26.187Z,11.00
2022-10-11T14:42:53.586Z,9.90
2022-10-11T14:45:21.404Z,10.33
2022-10-11T14:47:49.545Z,11.23
2022-10-11T14:50:39.136Z,11.43
2022-10-11T14:53:07.581Z,10.70
2022-10-11T14:55:39.642Z,10.93
2022-10-11T14:58:07.879Z,11.10
2022-10-11T15:00:35.805Z,10.90
2022-10-11T15:03:05.021Z,10.70
2022-10-11T15:05:34.259Z,10.37
2022-10-11T15:08:06.431Z,10.70
2022-10-11T15:10:40.927Z,10.10
2022-10-11T15:13:08.692Z,10.47
2022-10-11T15:15:40.743Z,10.90
2022-10-11T15:18:12.287Z,11.50
2022-10-11T15:20:42.501Z,8.97
2022-10-11T15:23:10.950Z,12.17
2022-10-11T15:25:40.068Z,12.03
2022-10-11T15:28:08.664Z,12.40
2022-10-11T15:30:41.252Z,12.00
2022-10-11T15:33:08.979Z,11.67
2022-10-11T15:35:36.012Z,11.03
2022-10-11T15:38:03.476Z,11.07
2022-10-11T15:40:33.711Z,11.03
2022-10-11T15:43:01.845Z,11.50
2022-10-11T15:45:29.591Z,12.00
2022-10-11T15:47:57.080Z,11.03
2022-10-11T15:50:40.098Z,12.13
2022-10-11T15:53:14.666Z,12.20
2022-10-11T15:55:44.575Z,13.17
2022-10-11T15:58:18.801Z,12.90
2022-10-11T16:00:48.010Z,13.77
2022-10-11T16:03:16.404Z,13.93
2022-10-11T16:05:43.940Z,12.57
2022-10-11T16:08:11.237Z,11.87
2022-10-11T16:10:39.415Z,12.40
2022-10-11T16:13:06.720Z,12.23
2022-10-11T16:15:35.539Z,11.90
2022-10-11T16:18:02.533Z,12.37
2022-10-11T16:20:29.691Z,14.40
2022-10-11T16:22:57.674Z,14.03
2022-10-11T16:25:24.817Z,14.30
2022-10-11T16:27:52.931Z,13.33
2022-10-11T16:30:20.402Z,13.03
2022-10-11T16:32:48.186Z,12.47
2022-10-11T16:35:16.326Z,11.40
2022-10-11T16:37:44.171Z,13.90
2022-10-11T16:40:15.902Z,13.73
2022-10-11T16:42:43.306Z,12.97
2022-10-11T16:45:15.471Z,12.40
2022-10-11T16:47:43.824Z,13.53
2022-10-11T16:50:11.704Z,12.53
2022-10-11T16:52:38.721Z,16.00
2022-10-11T16:55:06.487Z,13.07
2022-10-11T16:57:33.486Z,13.50
2022-10-11T17:00:00.455Z,12.43
2022-10-11T17:02:31.490Z,13.90
2022-10-11T17:04:59.926Z,12.63
2022-10-11T17:07:27.522Z,14.37
2022-10-11T17:09:54.963Z,15.07
2022-10-11T17:12:24.289Z,14.10
2022-10-11T17:14:51.562Z,14.33
2022-10-11T17:17:19.307Z,13.93
2022-10-11T17:19:48.038Z,14.00
2022-10-11T17:22:18.494Z,13.57
2022-10-11T17:24:46.077Z,13.43
2022-10-11T17:27:13.678Z,13.67
2022-10-11T17:29:41.021Z,13.87
2022-10-11T17:32:08.875Z,13.37
2022-10-11T17:34:36.065Z,14.43
2022-10-11T17:37:03.226Z,15.20
2022-10-11T17:39:30.326Z,14.30
2022-10-11T17:41:57.327Z,14.63
2022-10-11T17:44:24.334Z,14.47
2022-10-11T17:46:51.346Z,15.90
2022-10-11T17:49:18.306Z,15.47
2022-10-11T17:51:45.539Z,14.47
2022-10-11T17:54:13.095Z,15.77
2022-10-11T17:56:41.976Z,15.57
2022-10-11T17:59:16.001Z,15.57
2022-10-11T18:01:42.957Z,14.63
2022-10-11T18:04:16.497Z,14.97
2022-10-11T18:06:45.512Z,16.83
2022-10-11T18:09:13.736Z,15.00
2022-10-11T18:11:40.863Z,14.53
2022-10-11T18:14:08.075Z,14.60
2022-10-11T18:16:36.477Z,16.00
2022-10-11T18:19:07.151Z,12.80
2022-10-11T18:21:35.104Z,15.90
2022-10-11T18:24:05.322Z,15.57
2022-10-11T18:26:32.375Z,16.73
2022-10-11T18:28:59.723Z,16.50
2022-10-11T18:31:29.475Z,16.30
2022-10-11T18:33:56.883Z,15.50
2022-10-11T18:36:27.092Z,16.87
2022-10-11T18:38:56.660Z,15.57
2022-10-11T18:41:30.444Z,15.80
2022-10-11T18:44:00.917Z,16.53
2022-10-11T18:46:28.733Z,17.17
2022-10-11T18:48:57.455Z,16.60
2022-10-11T18:51:26.654Z,16.53
2022-10-11T18:53:54.654Z,17.30
2022-10-11T18:56:26.767Z,16.30
2022-10-11T18:58:55.581Z,17.37
2022-10-11T19:01:24.576Z,16.53
2022-10-11T19:03:53.805Z,16.93
2022-10-11T19:06:24.749Z,18.10
2022-10-11T19:08:54.074Z,18.17
2022-10-11T19:11:22.646Z,19.60
2022-10-11T19:13:58.596Z,18.40
2022-10-11T19:16:26.752Z,18.33
2022-10-11T19:18:53.827Z,18.03
2022-10-11T19:21:21.101Z,17.43
2022-10-11T19:23:49.230Z,17.47
2022-10-11T19:26:16.228Z,18.03
2022-10-11T19:28:43.977Z,18.20
2022-10-11T19:31:14.436Z,18.27
2022-10-11T19:33:41.350Z,18.80
2022-10-11T19:36:10.530Z,20.20
2022-10-11T19:38:37.514Z,17.57
2022-10-11T19:41:05.420Z,17.87
2022-10-11T19:43:32.357Z,19.23
2022-10-11T19:46:04.272Z,17.43
2022-10-11T19:48:31.586Z,19.03
2022-10-11T19:51:07.448Z,17.40
2022-10-11T19:53:34.644Z,18.00
2022-10-11T19:56:07.754Z,18.57
2022-10-11T19:58:35.016Z,18.47
2022-10-11T20:01:06.693Z,19.07
2022-10-11T20:03:34.416Z,18.13
2022-10-11T20:06:03.747Z,19.77
2022-10-11T20:08:31.461Z,21.30
2022-10-11T20:11:00.134Z,20.60
2022-10-11T20:13:33.943Z,20.87
2022-10-11T20:16:05.493Z,20.40
2022-10-11T20:18:33.418Z,21.80
2022-10-11T20:21:03.476Z,21.30
2022-10-11T20:23:31.057Z,20.97
2022-10-11T20:26:02.453Z,20.40
2022-10-11T20:28:31.558Z,20.70
2022-10-11T20:31:00.114Z,21.03
2022-10-11T20:33:30.013Z,19.70
2022-10-11T20:36:02.271Z,20.30
2022-10-11T20:38:30.986Z,21.23
2022-10-11T20:40:58.066Z,21.07
2022-10-11T20:43:25.595Z,18.27
2022-10-11T20:46:20.373Z,22.27
2022-10-11T20:49:00.518Z,22.17
2022-10-11T20:51:33.092Z,23.10
2022-10-11T20:54:00.660Z,21.60
2022-10-11T20:56:28.450Z,19.40
2022-10-11T20:58:56.425Z,22.03
2022-10-11T21:01:26.437Z,21.80
2022-10-11T21:03:54.164Z,21.43
2022-10-11T21:06:21.328Z,20.53
2022-10-11T21:08:48.334Z,23.00
2022-10-11T21:11:15.444Z,22.47
2022-10-11T21:13:42.808Z,24.27
2022-10-11T21:16:14.608Z,24.17
2022-10-11T21:18:41.854Z,24.33
2022-10-11T21:21:14.134Z,25.57
2022-10-11T21:23:41.713Z,26.33
2022-10-11T21:26:11.387Z,26.00
2022-10-11T21:28:40.029Z,26.70
2022-10-11T21:31:15.684Z,35.60
2022-10-11T21:33:43.994Z,28.03
2022-10-11T21:36:12.989Z,27.20
2022-10-11T21:38:40.105Z,27.67
2022-10-11T21:41:15.236Z,27.43
2022-10-11T21:43:42.733Z,26.37
2022-10-11T21:46:20.381Z,27.23
2022-10-11T21:48:47.821Z,27.27
2022-10-11T21:51:23.418Z,26.63
2022-10-11T21:53:51.164Z,27.57
2022-10-11T21:56:18.183Z,27.40
2022-10-11T21:58:49.709Z,28.17
2022-10-11T22:01:17.890Z,28.40
2022-10-11T22:03:45.797Z,28.70
2022-10-11T22:06:13.806Z,27.33
2022-10-11T22:08:41.359Z,27.50
2022-10-11T22:11:11.743Z,26.63
2022-10-11T22:13:38.931Z,27.17
2022-10-11T22:16:08.859Z,27.80
2022-10-11T22:18:35.993Z,28.13
2022-10-11T22:21:07.772Z,27.90
2022-10-11T22:23:35.117Z,29.43
2022-10-11T22:26:11.050Z,27.83
2022-10-11T22:28:38.074Z,29.17
2022-10-11T22:31:06.463Z,28.37
2022-10-11T22:33:34.213Z,26.83
2022-10-11T22:36:03.842Z,28.67
2022-10-11T22:38:31.010Z,29.23
2022-10-11T22:40:58.806Z,27.80
2022-10-11T22:43:25.659Z,29.90
2022-10-11T22:45:52.682Z,28.50
2022-10-11T22:48:19.894Z,28.40
2022-10-11T22:50:47.107Z,27.77
2022-10-11T22:53:14.872Z,26.50
2022-10-11T22:55:42.389Z,29.00
2022-10-11T22:58:09.930Z,27.43
2022-10-11T23:00:37.130Z,28.20
2022-10-11T23:03:04.776Z,27.97
2022-10-11T23:05:31.741Z,27.10
2022-10-11T23:07:58.574Z,28.10
2022-10-11T23:10:25.852Z,28.13
2022-10-11T23:12:52.693Z,28.20
2022-10-11T23:15:19.591Z,27.57
2022-10-11T23:17:46.601Z,28.57
2022-10-11T23:20:13.489Z,26.93
2022-10-11T23:22:40.466Z,28.83
2022-10-11T23:25:08.089Z,28.57
2022-10-11T23:27:35.160Z,30.17
2022-10-11T23:30:02.419Z,28.43
2022-10-11T23:32:29.799Z,28.40
2022-10-11T23:34:56.748Z,28.13
2022-10-11T23:37:23.722Z,27.33
2022-10-11T23:39:52.026Z,29.87
2022-10-11T23:42:18.947Z,29.60
2022-10-11T23:44:45.865Z,27.87
2022-10-11T23:47:12.817Z,28.20
2022-10-11T23:49:39.756Z,25.70
2022-10-11T23:52:06.777Z,27.13
2022-10-11T23:54:33.719Z,26.57
2022-10-11T23:57:00.633Z,27.67
2022-10-11T23:59:27.731Z,29.03
